Time;durP1;ratioP1;P1;durP2;ratioP2;P2;SDS_P1;SDS_P2;PMS_P1;PMS_P2;Temp;Humidity;BMP_temperature;BMP_pressure;BME280_temperature;BME280_humidity;BME280_pressure;Samples;Min_cycle;Max_cycle;Signal;HPM_P1;HPM_P2
2022/07/12 00:01:10;;;;;;;3.10;1.90;;;17.50;98.00;;;;;;5052108;28;20458;-71
2022/07/12 00:03:37;;;;;;;3.17;1.77;;;17.30;98.00;;;;;;5052191;28;20462;-71
2022/07/12 00:06:05;;;;;;;2.60;1.57;;;17.20;98.00;;;;;;5052287;28;20461;-71
2022/07/12 00:08:35;;;;;;;4.70;2.10;;;17.20;98.00;;;;;;5052298;28;20796;-71
2022/07/12 00:11:02;;;;;;;3.23;1.87;;;17.20;98.00;;;;;;5051324;28;20453;-71
2022/07/12 00:13:30;;;;;;;2.33;1.53;;;17.20;98.00;;;;;;5052200;28;20454;-71
2022/07/12 00:15:57;;;;;;;2.87;1.93;;;17.20;98.00;;;;;;5052376;28;20511;-71
2022/07/12 00:18:26;;;;;;;2.40;1.70;;;17.30;98.00;;;;;;5052239;28;20456;-71
2022/07/12 00:20:54;;;;;;;2.90;1.80;;;17.40;98.00;;;;;;5052513;28;20788;-71
2022/07/12 00:23:21;;;;;;;1.80;1.50;;;17.30;98.00;;;;;;5051002;28;20527;-71
2022/07/12 00:25:48;;;;;;;1.97;1.70;;;17.40;98.00;;;;;;5052182;28;20458;-71
2022/07/12 00:28:15;;;;;;;1.50;1.33;;;17.40;98.00;;;;;;5052282;28;20458;-71
2022/07/12 00:30:42;;;;;;;2.30;1.60;;;17.40;98.00;;;;;;5052288;28;20450;-71
2022/07/12 00:33:10;;;;;;;1.67;1.50;;;17.30;98.00;;;;;;5052288;28;20462;-71
2022/07/12 00:35:38;;;;;;;1.70;1.40;;;17.30;98.00;;;;;;5052058;28;20458;-70
2022/07/12 00:38:05;;;;;;;2.30;1.90;;;17.30;98.00;;;;;;5052138;28;20457;-71
2022/07/12 00:40:32;;;;;;;1.80;1.53;;;17.30;98.00;;;;;;5051187;28;20509;-71
2022/07/12 00:42:59;;;;;;;1.87;1.30;;;17.10;98.00;;;;;;5051712;28;20535;-71
2022/07/12 00:45:26;;;;;;;2.30;1.90;;;16.90;98.00;;;;;;5051573;28;20454;-71
2022/07/12 00:47:54;;;;;;;1.97;1.47;;;16.90;98.00;;;;;;5051951;28;20461;-71
2022/07/12 00:50:23;;;;;;;3.47;1.80;;;16.90;98.00;;;;;;5051663;28;20829;-71
2022/07/12 00:52:55;;;;;;;3.77;2.00;;;16.80;98.00;;;;;;5051938;28;20453;-71
2022/07/12 00:55:23;;;;;;;4.33;1.70;;;16.80;98.00;;;;;;5051659;28;20460;-71
2022/07/12 00:57:50;;;;;;;1.50;1.30;;;16.90;98.00;;;;;;5051596;28;21025;-70
2022/07/12 01:00:20;;;;;;;1.67;1.60;;;16.80;98.00;;;;;;5051622;28;20939;-71
2022/07/12 01:02:48;;;;;;;2.10;1.50;;;16.80;98.00;;;;;;5051743;28;20486;-71
2022/07/12 01:05:15;;;;;;;2.43;1.80;;;16.80;98.00;;;;;;5051705;28;20450;-71
2022/07/12 01:07:43;;;;;;;2.23;1.50;;;16.70;98.00;;;;;;5051660;28;20460;-71
2022/07/12 01:10:13;;;;;;;2.03;1.53;;;16.60;98.00;;;;;;5051693;28;20461;-71
2022/07/12 01:12:41;;;;;;;2.20;1.70;;;16.50;98.00;;;;;;5051757;28;20886;-71
2022/07/12 01:15:10;;;;;;;1.57;1.30;;;16.60;98.00;;;;;;5051695;28;20457;-70
2022/07/12 01:17:37;;;;;;;3.63;1.60;;;16.60;98.00;;;;;;5051802;28;20467;-71
2022/07/12 01:20:07;;;;;;;1.50;1.40;;;16.60;98.00;;;;;;5050321;28;20522;-71
2022/07/12 01:22:36;;;;;;;1.73;1.70;;;16.60;98.00;;;;;;5051615;28;20482;-71
2022/07/12 01:25:06;;;;;;;2.53;1.70;;;16.60;98.00;;;;;;5051600;28;20465;-71
2022/07/12 01:27:38;;;;;;;2.53;1.60;;;16.70;98.00;;;;;;5051648;28;20465;-71
2022/07/12 01:30:06;;;;;;;2.63;1.70;;;16.90;98.00;;;;;;5050601;28;20489;-71
2022/07/12 01:32:35;;;;;;;1.70;1.60;;;16.70;98.00;;;;;;5051192;28;20457;-71
2022/07/12 01:35:04;;;;;;;1.90;1.43;;;16.40;98.00;;;;;;5051601;28;20480;-71
2022/07/12 01:37:34;;;;;;;2.00;1.60;;;16.30;98.00;;;;;;5051244;28;20464;-71
2022/07/12 01:40:02;;;;;;;3.20;1.83;;;16.20;98.00;;;;;;5051240;28;20975;-71
2022/07/12 01:42:31;;;;;;;2.70;2.00;;;16.20;98.00;;;;;;5050904;28;21007;-71
2022/07/12 01:44:58;;;;;;;1.93;1.70;;;16.20;98.00;;;;;;5051492;28;20461;-71
2022/07/12 01:47:30;;;;;;;1.50;1.40;;;16.20;98.00;;;;;;5051022;28;20453;-71
2022/07/12 01:49:57;;;;;;;2.00;1.60;;;16.10;98.00;;;;;;5051342;28;20458;-71
2022/07/12 01:52:25;;;;;;;1.53;1.40;;;16.10;98.00;;;;;;5050745;28;20460;-70
2022/07/12 01:54:53;;;;;;;1.80;1.37;;;16.10;98.00;;;;;;5054881;28;20841;-71
2022/07/12 01:57:20;;;;;;;3.43;1.90;;;16.00;98.00;;;;;;5054786;28;20456;-71
2022/07/12 01:59:49;;;;;;;2.07;1.77;;;16.00;98.00;;;;;;5054702;28;20462;-71
2022/07/12 02:02:17;;;;;;;3.17;1.90;;;16.10;98.00;;;;;;5054582;28;20508;-71
2022/07/12 02:04:44;;;;;;;2.27;1.40;;;16.20;98.00;;;;;;5054648;28;20492;-71
2022/07/12 02:07:11;;;;;;;2.23;1.50;;;16.30;98.00;;;;;;5055068;28;20453;-71
2022/07/12 02:09:38;;;;;;;3.23;1.87;;;16.20;98.00;;;;;;5054425;28;20460;-70
2022/07/12 02:12:06;;;;;;;1.60;1.40;;;15.90;98.00;;;;;;5054735;28;20457;-71
2022/07/12 02:14:33;;;;;;;2.70;1.70;;;15.80;98.00;;;;;;5054536;28;20450;-71
2022/07/12 02:17:01;;;;;;;1.70;1.50;;;15.80;98.00;;;;;;5053369;28;20485;-72
2022/07/12 02:19:29;;;;;;;2.07;1.57;;;15.70;98.00;;;;;;5054492;28;20462;-71
2022/07/12 02:21:56;;;;;;;1.97;1.77;;;15.60;98.00;;;;;;5054705;28;20454;-71
2022/07/12 02:24:23;;;;;;;1.87;1.63;;;15.50;98.00;;;;;;5053241;28;20635;-71
2022/07/12 02:26:51;;;;;;;1.80;1.60;;;15.40;98.00;;;;;;5054513;28;20799;-71
2022/07/12 02:29:18;;;;;;;1.80;1.43;;;15.40;98.00;;;;;;5054386;28;20449;-71
2022/07/12 02:31:45;;;;;;;2.40;1.33;;;15.40;98.00;;;;;;5054370;28;20529;-71
2022/07/12 02:34:13;;;;;;;1.37;1.37;;;15.40;98.00;;;;;;5054259;28;20454;-71
2022/07/12 02:36:41;;;;;;;1.97;1.40;;;15.40;98.00;;;;;;5054174;28;20453;-71
2022/07/12 02:39:08;;;;;;;1.93;1.50;;;15.30;98.00;;;;;;5053721;28;20462;-71
2022/07/12 02:41:35;;;;;;;2.00;1.70;;;15.30;98.00;;;;;;5052829;28;20453;-71
2022/07/12 02:44:02;;;;;;;1.97;1.40;;;15.20;98.00;;;;;;5052494;28;20481;-71
2022/07/12 02:46:30;;;;;;;3.97;2.00;;;15.10;98.00;;;;;;5052709;28;20465;-71
2022/07/12 02:48:57;;;;;;;1.90;1.60;;;15.20;98.00;;;;;;5052656;28;20468;-71
2022/07/12 02:51:26;;;;;;;3.80;1.83;;;15.20;98.00;;;;;;5053359;28;20568;-71
2022/07/12 02:53:53;;;;;;;2.10;1.47;;;15.10;98.00;;;;;;5053984;28;20458;-71
2022/07/12 02:56:20;;;;;;;2.33;1.43;;;15.20;98.00;;;;;;5053319;28;20465;-70
2022/07/12 02:58:47;;;;;;;1.63;1.30;;;15.10;98.00;;;;;;5053564;28;20446;-70
2022/07/12 03:01:14;;;;;;;1.60;1.30;;;15.00;98.00;;;;;;5052117;28;20454;-71
2022/07/12 03:03:41;;;;;;;1.30;1.20;;;15.00;98.00;;;;;;5051690;28;20486;-71
2022/07/12 03:06:09;;;;;;;1.50;1.30;;;15.00;98.00;;;;;;5053566;28;20873;-71
2022/07/12 03:08:38;;;;;;;8.70;4.33;;;15.10;98.00;;;;;;5053593;28;20483;-70
2022/07/12 03:11:05;;;;;;;3.40;1.97;;;15.00;98.00;;;;;;5053333;28;20955;-71
2022/07/12 03:13:32;;;;;;;2.33;1.47;;;14.90;98.00;;;;;;5053502;28;20461;-71
2022/07/12 03:15:59;;;;;;;1.93;1.50;;;14.90;98.00;;;;;;5053262;28;20457;-71
2022/07/12 03:18:27;;;;;;;1.90;1.73;;;15.10;98.00;;;;;;5053449;28;20468;-71
2022/07/12 03:20:54;;;;;;;1.87;1.50;;;15.00;98.00;;;;;;5053444;28;20545;-71
2022/07/12 03:23:21;;;;;;;1.77;1.30;;;15.00;98.00;;;;;;5053453;28;20979;-70
2022/07/12 03:25:49;;;;;;;1.60;1.50;;;15.10;98.00;;;;;;5053304;28;20453;-71
2022/07/12 03:28:17;;;;;;;1.77;1.50;;;15.00;98.00;;;;;;5053285;28;20454;-71
2022/07/12 03:30:44;;;;;;;2.03;1.40;;;14.90;98.00;;;;;;5053423;28;20458;-71
2022/07/12 03:33:11;;;;;;;2.00;1.23;;;14.80;98.00;;;;;;5053369;28;20450;-71
2022/07/12 03:35:38;;;;;;;1.97;1.30;;;14.80;98.00;;;;;;5052963;28;20446;-72
2022/07/12 03:38:05;;;;;;;2.13;1.70;;;14.80;98.00;;;;;;5051948;28;20835;-70
2022/07/12 03:40:35;;;;;;;2.83;1.53;;;14.90;98.00;;;;;;5051488;28;20461;-71
2022/07/12 03:43:04;;;;;;;2.60;1.83;;;14.80;98.00;;;;;;5053001;28;20508;-70
2022/07/12 03:45:31;;;;;;;2.90;1.60;;;14.80;98.00;;;;;;5052491;28;20457;-71
2022/07/12 03:47:59;;;;;;;1.97;1.50;;;14.60;98.00;;;;;;5051823;28;20473;-70
2022/07/12 03:50:26;;;;;;;1.67;1.33;;;14.80;98.00;;;;;;5052732;28;20461;-71
2022/07/12 03:52:53;;;;;;;1.80;1.30;;;15.00;98.00;;;;;;5052598;28;20465;-70
2022/07/12 03:55:20;;;;;;;2.00;1.73;;;15.10;98.00;;;;;;5051572;28;20541;-71
2022/07/12 03:57:49;;;;;;;1.63;1.43;;;15.00;98.00;;;;;;5052505;28;20450;-70
2022/07/12 04:00:17;;;;;;;1.80;1.50;;;14.80;98.00;;;;;;5052444;28;20446;-71
2022/07/12 04:02:45;;;;;;;1.40;1.27;;;14.70;98.00;;;;;;5052609;28;20786;-71
2022/07/12 04:05:13;;;;;;;1.40;1.40;;;14.60;98.00;;;;;;5052331;28;20450;-70
2022/07/12 04:07:41;;;;;;;2.07;1.57;;;14.70;98.00;;;;;;5052311;28;20936;-71
2022/07/12 04:10:09;;;;;;;1.50;1.30;;;14.60;98.00;;;;;;5052182;28;20454;-70
2022/07/12 04:12:36;;;;;;;1.70;1.40;;;14.50;98.00;;;;;;5052416;28;20545;-71
2022/07/12 04:15:04;;;;;;;2.20;1.60;;;14.50;98.00;;;;;;5052047;28;20458;-71
2022/07/12 04:17:33;;;;;;;1.50;1.10;;;14.40;98.00;;;;;;5052167;28;20460;-71
2022/07/12 04:20:00;;;;;;;1.40;1.20;;;14.40;98.00;;;;;;5052191;28;20464;-71
2022/07/12 04:22:27;;;;;;;2.20;1.77;;;14.50;98.00;;;;;;5052176;28;20461;-70
2022/07/12 04:24:55;;;;;;;1.33;1.20;;;14.70;98.00;;;;;;5052440;28;20478;-71
2022/07/12 04:27:22;;;;;;;3.53;1.60;;;14.90;98.00;;;;;;5052252;28;20504;-71
2022/07/12 04:29:50;;;;;;;1.97;1.60;;;15.00;98.00;;;;;;5052226;28;20488;-71
2022/07/12 04:32:18;;;;;;;3.07;1.70;;;15.10;98.00;;;;;;5051038;28;20450;-71
2022/07/12 04:34:46;;;;;;;1.60;1.30;;;15.00;98.00;;;;;;5051848;28;20460;-70
2022/07/12 04:37:13;;;;;;;3.00;1.77;;;15.10;98.00;;;;;;5051914;28;20446;-71
2022/07/12 04:39:40;;;;;;;3.53;1.80;;;15.20;98.00;;;;;;5051078;28;20890;-70
2022/07/12 04:42:08;;;;;;;1.70;1.50;;;15.40;98.00;;;;;;5051282;28;20481;-71
2022/07/12 04:44:35;;;;;;;2.07;1.70;;;15.70;98.00;;;;;;5049838;28;20485;-71
2022/07/12 04:47:02;;;;;;;1.53;1.50;;;15.80;98.00;;;;;;5050897;28;20461;-72
2022/07/12 04:49:32;;;;;;;2.13;1.40;;;15.90;98.00;;;;;;5050914;28;20462;-71
2022/07/12 04:52:00;;;;;;;1.70;1.40;;;15.90;98.00;;;;;;5050876;28;20468;-71
2022/07/12 04:54:27;;;;;;;1.93;1.50;;;15.90;98.00;;;;;;5050830;28;20458;-71
2022/07/12 04:56:54;;;;;;;1.73;1.67;;;15.90;98.00;;;;;;5050954;28;20492;-72
2022/07/12 04:59:22;;;;;;;2.90;2.00;;;15.70;98.00;;;;;;5050769;28;20450;-71
2022/07/12 05:01:50;;;;;;;2.23;1.60;;;15.50;98.00;;;;;;5050044;28;20513;-71
2022/07/12 05:04:17;;;;;;;2.00;1.80;;;15.40;98.00;;;;;;5049479;28;21032;-70
2022/07/12 05:06:44;;;;;;;2.67;1.80;;;15.30;98.00;;;;;;5051088;28;20461;-71
2022/07/12 05:09:12;;;;;;;1.90;1.60;;;15.20;98.00;;;;;;5050705;28;20556;-71
2022/07/12 05:11:39;;;;;;;3.80;2.07;;;15.20;98.00;;;;;;5050761;28;20936;-71
2022/07/12 05:14:06;;;;;;;2.10;1.80;;;15.20;98.00;;;;;;5050709;28;20468;-71
2022/07/12 05:16:33;;;;;;;1.60;1.53;;;15.20;98.00;;;;;;5050791;28;20449;-70
2022/07/12 05:19:02;;;;;;;1.70;1.53;;;15.30;98.00;;;;;;5049551;28;20465;-70
2022/07/12 05:21:29;;;;;;;1.40;1.37;;;15.40;98.00;;;;;;5049497;28;20932;-71
2022/07/12 05:23:57;;;;;;;1.60;1.30;;;15.40;98.00;;;;;;5050562;28;20493;-71
2022/07/12 05:26:26;;;;;;;1.60;1.47;;;15.50;98.00;;;;;;5050559;28;20457;-71
2022/07/12 05:28:54;;;;;;;2.00;1.73;;;15.60;98.00;;;;;;5053793;28;20457;-71
2022/07/12 05:31:21;;;;;;;2.47;1.60;;;15.80;98.00;;;;;;5052551;28;20514;-70
2022/07/12 05:33:49;;;;;;;3.20;2.00;;;15.90;98.00;;;;;;5054553;28;20942;-71
2022/07/12 05:36:16;;;;;;;1.57;1.50;;;16.00;98.00;;;;;;5052600;28;20457;-71
2022/07/12 05:38:45;;;;;;;2.67;1.80;;;16.20;98.00;;;;;;5012576;28;1203375;-71
2022/07/12 05:41:12;;;;;;;2.40;1.70;;;16.30;98.00;;;;;;5053745;28;20207;-71
2022/07/12 05:43:40;;;;;;;1.77;1.43;;;16.40;98.00;;;;;;5055110;28;20481;-71
2022/07/12 05:46:08;;;;;;;3.50;2.03;;;16.50;98.00;;;;;;5055098;28;20457;-71
2022/07/12 05:48:36;;;;;;;2.37;1.67;;;16.60;98.00;;;;;;5055166;28;20544;-71
2022/07/12 05:53:44;;;;;;;2.10;1.60;;;16.60;98.00;;;;;;5054515;28;20965;-71
2022/07/12 05:56:13;;;;;;;2.13;1.60;;;16.70;98.00;;;;;;5054806;28;20821;-70
2022/07/12 05:58:42;;;;;;;1.63;1.50;;;16.80;98.00;;;;;;5054671;28;20457;-70
2022/07/12 06:01:09;;;;;;;2.93;2.00;;;16.90;98.00;;;;;;5054816;28;20457;-71
2022/07/12 06:03:37;;;;;;;2.03;1.73;;;17.00;98.00;;;;;;5054402;28;20489;-69
2022/07/12 06:06:04;;;;;;;2.23;1.60;;;17.10;98.00;;;;;;5053517;28;20453;-69
2022/07/12 06:08:32;;;;;;;3.40;2.00;;;17.20;98.00;;;;;;5054497;28;20453;-69
2022/07/12 06:11:01;;;;;;;3.10;2.20;;;17.40;98.00;;;;;;5054645;28;20464;-70
2022/07/12 06:13:29;;;;;;;4.00;2.10;;;17.50;98.00;;;;;;5054614;28;20507;-69
2022/07/12 06:15:59;;;;;;;2.07;1.60;;;17.60;98.00;;;;;;5054630;28;20457;-70
2022/07/12 06:18:26;;;;;;;2.57;1.70;;;17.60;98.00;;;;;;5054150;28;21189;-69
2022/07/12 06:20:53;;;;;;;2.50;1.80;;;17.60;98.00;;;;;;5054359;28;20454;-69
2022/07/12 06:23:20;;;;;;;2.33;1.70;;;17.60;98.00;;;;;;5054447;28;20461;-70
2022/07/12 06:25:47;;;;;;;2.00;1.53;;;17.60;98.00;;;;;;5053101;28;20450;-70
2022/07/12 06:28:14;;;;;;;2.57;1.97;;;17.70;98.00;;;;;;5054569;28;20457;-69
2022/07/12 06:30:42;;;;;;;1.80;1.37;;;17.80;98.00;;;;;;5053420;28;20462;-69
2022/07/12 06:33:11;;;;;;;2.80;1.97;;;18.00;98.00;;;;;;5054605;28;20839;-69
2022/07/12 06:35:38;;;;;;;2.53;1.77;;;18.10;98.00;;;;;;5054167;28;20489;-70
2022/07/12 06:38:05;;;;;;;1.80;1.57;;;18.10;98.00;;;;;;5052633;28;20454;-70
2022/07/12 06:40:32;;;;;;;2.20;1.50;;;18.30;98.00;;;;;;5053125;28;20475;-69
2022/07/12 06:42:59;;;;;;;2.80;1.70;;;18.30;98.00;;;;;;5054255;28;20445;-69
2022/07/12 06:45:27;;;;;;;2.40;1.83;;;18.40;98.00;;;;;;5051021;28;20489;-70
2022/07/12 06:47:54;;;;;;;3.83;1.60;;;18.60;98.00;;;;;;5051345;28;20865;-70
2022/07/12 06:50:23;;;;;;;1.80;1.47;;;18.70;98.00;;;;;;5051395;28;20533;-67
2022/07/12 06:52:50;;;;;;;3.00;1.87;;;18.90;98.00;;;;;;5050445;28;20470;-70
2022/07/12 06:55:17;;;;;;;1.53;1.40;;;19.00;98.00;;;;;;5052042;28;20468;-70
2022/07/12 06:57:44;;;;;;;2.43;1.63;;;19.10;98.00;;;;;;5053788;28;20485;-71
2022/07/12 07:00:12;;;;;;;2.90;1.77;;;19.10;98.00;;;;;;5053811;28;20446;-70
2022/07/12 07:02:39;;;;;;;2.30;1.60;;;19.10;98.00;;;;;;5051663;28;21013;-70
2022/07/12 07:05:07;;;;;;;2.10;1.50;;;19.10;98.00;;;;;;5052626;28;20913;-69
2022/07/12 07:07:37;;;;;;;1.80;1.53;;;19.10;98.00;;;;;;5052765;28;20457;-69
2022/07/12 07:10:05;;;;;;;1.97;1.50;;;19.20;98.00;;;;;;5052660;28;20464;-70
2022/07/12 07:12:32;;;;;;;1.90;1.60;;;19.40;98.00;;;;;;5052789;28;20461;-68
2022/07/12 07:14:59;;;;;;;1.90;1.80;;;19.60;98.00;;;;;;5052805;28;20457;-70
2022/07/12 07:17:26;;;;;;;2.23;1.60;;;19.80;98.00;;;;;;5052683;28;20462;-70
2022/07/12 07:19:53;;;;;;;2.70;1.83;;;19.90;98.00;;;;;;5052525;28;20973;-70
2022/07/12 07:22:21;;;;;;;2.63;1.87;;;20.00;98.00;;;;;;5052528;28;20511;-70
2022/07/12 07:24:49;;;;;;;2.43;1.70;;;20.10;98.00;;;;;;5051080;28;20514;-71
2022/07/12 07:27:17;;;;;;;1.60;1.50;;;20.10;98.00;;;;;;5052446;28;20466;-71
2022/07/12 07:32:28;;;;;;;1.50;1.40;;;20.10;98.00;;;;;;5052677;28;20437;-71
2022/07/12 07:34:55;;;;;;;3.00;1.97;;;20.30;98.00;;;;;;5052483;28;20461;-70
2022/07/12 07:37:23;;;;;;;1.30;1.20;;;20.50;98.00;;;;;;5052441;28;20457;-69
2022/07/12 07:39:52;;;;;;;1.27;1.20;;;20.60;98.00;;;;;;5052434;28;20465;-69
2022/07/12 07:42:19;;;;;;;1.30;1.13;;;20.60;98.00;;;;;;5052214;28;20457;-69
2022/07/12 07:44:47;;;;;;;1.50;1.37;;;20.60;98.00;;;;;;5052027;28;20486;-70
2022/07/12 07:47:14;;;;;;;1.43;1.20;;;20.80;98.00;;;;;;5052251;28;20458;-70
2022/07/12 07:49:41;;;;;;;2.00;1.20;;;20.90;98.00;;;;;;5050517;28;20450;-70
2022/07/12 07:52:08;;;;;;;1.30;1.10;;;21.00;98.00;;;;;;5034460;28;20460;-70
2022/07/12 07:54:36;;;;;;;1.20;1.20;;;21.10;98.00;;;;;;5051934;28;20509;-70
2022/07/12 07:57:05;;;;;;;1.33;1.20;;;21.20;98.00;;;;;;5050818;28;20951;-69
2022/07/12 07:59:32;;;;;;;1.30;1.27;;;21.30;98.00;;;;;;5051972;28;20932;-70
2022/07/12 08:01:59;;;;;;;1.57;1.40;;;21.40;98.00;;;;;;5052036;28;20457;-70
2022/07/12 08:04:26;;;;;;;1.80;1.17;;;21.40;98.00;;;;;;5051498;28;20478;-70
2022/07/12 08:06:53;;;;;;;1.53;1.50;;;21.40;98.00;;;;;;5051963;28;20450;-70
2022/07/12 08:09:20;;;;;;;1.30;1.10;;;21.50;98.00;;;;;;5051638;28;20449;-70
2022/07/12 08:11:47;;;;;;;1.53;1.40;;;21.50;98.00;;;;;;5050441;28;20961;-70
2022/07/12 08:14:16;;;;;;;1.90;1.30;;;21.60;98.00;;;;;;5051562;28;20450;-70
2022/07/12 08:16:43;;;;;;;1.53;1.40;;;21.70;98.00;;;;;;5051490;28;20460;-70
2022/07/12 08:19:10;;;;;;;1.40;1.13;;;22.00;98.00;;;;;;5050463;28;20947;-70
2022/07/12 08:21:37;;;;;;;1.40;1.20;;;22.10;98.00;;;;;;5051553;28;20453;-66
2022/07/12 08:24:04;;;;;;;1.87;1.40;;;22.20;98.00;;;;;;5051333;28;20454;-67
2022/07/12 08:26:32;;;;;;;1.93;1.37;;;22.30;98.00;;;;;;5051274;28;20458;-66
2022/07/12 08:28:59;;;;;;;1.30;1.23;;;22.60;98.00;;;;;;5051450;28;20469;-66
2022/07/12 08:31:27;;;;;;;1.40;1.40;;;22.70;97.50;;;;;;5051558;28;20457;-66
2022/07/12 08:33:55;;;;;;;1.70;1.30;;;22.80;97.80;;;;;;5051534;28;20821;-67
2022/07/12 08:36:22;;;;;;;1.67;1.37;;;22.90;98.00;;;;;;5051602;28;20449;-69
2022/07/12 08:38:49;;;;;;;1.70;1.40;;;23.20;98.00;;;;;;5050051;28;20477;-68
2022/07/12 08:41:16;;;;;;;1.50;1.40;;;23.40;97.20;;;;;;5051175;28;20975;-70
2022/07/12 08:43:43;;;;;;;2.00;1.40;;;23.50;97.20;;;;;;5051152;28;20469;-68
2022/07/12 08:46:12;;;;;;;1.40;1.30;;;23.60;95.80;;;;;;5051075;28;20497;-70
2022/07/12 08:48:43;;;;;;;1.97;1.53;;;23.60;95.30;;;;;;5051041;28;20827;-66
2022/07/12 08:51:12;;;;;;;1.70;1.40;;;23.40;95.80;;;;;;5051065;28;20461;-67
2022/07/12 08:53:39;;;;;;;1.20;1.10;;;23.40;96.20;;;;;;5049919;28;20450;-67
2022/07/12 08:56:08;;;;;;;1.60;1.40;;;23.40;95.40;;;;;;5050980;28;20729;-63
2022/07/12 08:58:35;;;;;;;1.97;1.50;;;23.40;95.60;;;;;;5050942;28;20465;-65
2022/07/12 09:01:02;;;;;;;1.77;1.50;;;23.30;94.80;;;;;;5051219;28;20515;-66
2022/07/12 09:03:29;;;;;;;1.40;1.40;;;23.30;94.90;;;;;;5053879;28;20446;-65
2022/07/12 09:05:59;;;;;;;1.50;1.30;;;23.30;95.50;;;;;;5055093;28;20491;-65
2022/07/12 09:08:28;;;;;;;1.43;1.20;;;23.30;93.10;;;;;;5055059;28;20461;-65
2022/07/12 09:10:57;;;;;;;1.33;1.20;;;23.40;93.70;;;;;;5055110;28;20460;-66
2022/07/12 09:13:49;;;;;;;1.40;1.10;;;23.40;93.00;;;;;;5054813;28;20464;-64
2022/07/12 09:16:18;;;;;;;1.30;1.20;;;23.60;91.10;;;;;;5054581;28;20549;-66
2022/07/12 09:18:46;;;;;;;1.30;1.30;;;23.70;92.00;;;;;;5054910;28;20472;-66
2022/07/12 09:21:27;;;;;;;1.30;1.17;;;24.00;93.90;;;;;;5054784;28;20454;-66
2022/07/12 09:23:59;;;;;;;2.30;1.40;;;24.20;91.00;;;;;;5055058;28;20461;-66
2022/07/12 09:26:31;;;;;;;1.40;1.30;;;24.50;90.30;;;;;;5050224;28;20569;-63
2022/07/12 09:29:07;;;;;;;1.50;1.20;;;24.60;89.90;;;;;;5052798;28;20461;-65
2022/07/12 09:36:06;;;;;;;1.60;1.20;;;24.60;89.20;;;;;;5052310;28;20706;-65
2022/07/12 09:37:15;;;;;;;1.60;1.30;;;24.40;88.80;;;;;;5052411;28;20811;-66
2022/07/12 09:39:42;;;;;;;1.50;1.27;;;24.30;87.80;;;;;;5052635;28;20462;-66
2022/07/12 09:42:11;;;;;;;1.60;1.40;;;24.10;88.70;;;;;;5053409;28;20465;-66
2022/07/12 09:44:43;;;;;;;2.03;1.40;;;24.20;91.00;;;;;;5052966;28;20501;-68
2022/07/12 09:47:15;;;;;;;1.33;1.27;;;24.40;92.90;;;;;;5053023;28;20522;-66
2022/07/12 09:49:43;;;;;;;1.33;1.30;;;24.50;89.90;;;;;;5048894;28;20457;-67
2022/07/12 09:52:12;;;;;;;1.30;1.20;;;24.40;89.50;;;;;;5052053;28;20462;-66
2022/07/12 09:54:42;;;;;;;1.50;1.20;;;24.30;88.60;;;;;;5051600;28;20475;-71
2022/07/12 09:57:21;;;;;;;1.40;1.20;;;24.20;89.70;;;;;;5051471;28;20830;-71
2022/07/12 09:59:50;;;;;;;12.40;1.30;;;24.10;88.60;;;;;;5051382;28;20461;-71
2022/07/12 10:02:18;;;;;;;1.40;1.27;;;24.30;89.10;;;;;;5050354;28;20772;-71
2022/07/12 10:04:47;;;;;;;1.30;1.20;;;24.60;90.20;;;;;;5051224;28;20488;-71
2022/07/12 10:07:16;;;;;;;4.00;1.27;;;24.90;88.90;;;;;;5051285;28;20454;-71
2022/07/12 10:09:46;;;;;;;1.30;1.20;;;25.10;86.80;;;;;;5051663;28;20507;-70
2022/07/12 10:12:20;;;;;;;1.40;1.30;;;25.40;87.30;;;;;;5051742;28;20970;-71
2022/07/12 10:14:49;;;;;;;1.40;1.27;;;25.60;88.20;;;;;;5051278;28;20461;-71
2022/07/12 10:17:22;;;;;;;1.30;1.30;;;25.80;84.20;;;;;;5052077;28;20458;-71
2022/07/12 10:19:49;;;;;;;1.40;1.23;;;25.90;84.80;;;;;;5049746;28;20465;-71
2022/07/12 10:22:22;;;;;;;1.20;1.10;;;25.70;82.80;;;;;;5051261;28;20458;-71
2022/07/12 10:24:54;;;;;;;1.30;1.20;;;25.50;84.10;;;;;;5050841;28;20482;-71
2022/07/12 10:27:32;;;;;;;1.40;1.30;;;25.70;86.90;;;;;;5050975;28;20493;-71
2022/07/12 10:30:20;;;;;;;1.47;1.30;;;26.00;86.80;;;;;;5051094;28;20494;-72
2022/07/12 10:32:49;;;;;;;1.40;1.20;;;26.30;84.30;;;;;;5051216;28;20473;-71
2022/07/12 10:35:21;;;;;;;1.47;1.20;;;26.40;84.40;;;;;;5049795;28;20909;-71
2022/07/12 10:38:21;;;;;;;1.30;1.20;;;26.60;83.50;;;;;;5051039;28;20519;-71
2022/07/12 10:40:51;;;;;;;1.50;1.30;;;26.80;83.10;;;;;;5050759;28;20865;-72
2022/07/12 10:46:28;;;;;;;1.33;1.20;;;26.70;83.30;;;;;;5050492;28;20542;-72
2022/07/12 10:49:26;;;;;;;1.50;1.30;;;26.90;83.00;;;;;;5050460;28;20473;-72
2022/07/12 10:52:17;;;;;;;1.80;1.30;;;27.00;84.90;;;;;;5049041;28;20944;-72
2022/07/12 10:54:50;;;;;;;1.60;1.30;;;27.20;84.90;;;;;;5050175;28;20519;-72
2022/07/12 10:57:39;;;;;;;1.53;1.27;;;27.30;82.10;;;;;;5050476;28;20458;-72
2022/07/12 11:00:10;;;;;;;1.40;1.30;;;27.40;82.10;;;;;;5050306;28;20480;-72
2022/07/12 11:02:38;;;;;;;1.20;1.20;;;27.20;81.40;;;;;;5049088;28;20465;-72
2022/07/12 11:05:08;;;;;;;1.30;1.20;;;27.30;82.10;;;;;;5050330;28;20496;-72
2022/07/12 11:07:36;;;;;;;1.40;1.30;;;27.30;81.60;;;;;;5048974;28;20466;-72
2022/07/12 11:10:06;;;;;;;1.30;1.20;;;27.50;83.00;;;;;;5050483;28;20469;-72
2022/07/12 11:12:35;;;;;;;1.30;1.20;;;27.60;80.20;;;;;;5050183;28;20962;-72
2022/07/12 11:15:05;;;;;;;2.03;1.37;;;27.70;80.00;;;;;;5050184;28;20899;-72
2022/07/12 11:17:33;;;;;;;1.50;1.30;;;27.80;80.90;;;;;;5049914;28;21038;-72
2022/07/12 11:20:09;;;;;;;1.20;1.20;;;27.90;82.00;;;;;;5050053;28;20454;-72
2022/07/12 11:22:37;;;;;;;1.60;1.30;;;28.10;79.90;;;;;;5049976;28;20453;-72
2022/07/12 11:25:06;;;;;;;1.30;1.20;;;28.20;77.10;;;;;;5049202;28;20486;-72
2022/07/12 11:27:36;;;;;;;1.40;1.27;;;28.20;78.10;;;;;;5049509;28;20465;-72
2022/07/12 11:30:07;;;;;;;1.33;1.20;;;28.50;78.60;;;;;;5050170;28;20454;-72
2022/07/12 11:32:36;;;;;;;1.60;1.20;;;28.70;77.00;;;;;;5049855;28;20461;-72
2022/07/12 11:35:25;;;;;;;1.40;1.20;;;28.70;76.90;;;;;;5049699;28;20564;-72
2022/07/12 11:37:54;;;;;;;1.30;1.20;;;28.90;76.20;;;;;;5036528;28;20814;-73
2022/07/12 11:40:30;;;;;;;1.23;1.20;;;29.00;75.60;;;;;;5049908;28;20971;-73
2022/07/12 11:43:00;;;;;;;1.40;1.30;;;29.00;76.30;;;;;;5041741;28;20511;-72
2022/07/12 11:45:28;;;;;;;1.37;1.30;;;29.10;77.70;;;;;;5049365;28;20488;-73
2022/07/12 11:47:57;;;;;;;1.77;1.40;;;29.40;77.60;;;;;;5050654;28;20464;-72
2022/07/12 11:50:24;;;;;;;1.70;1.40;;;29.50;77.10;;;;;;5051943;28;20457;-73
2022/07/12 11:52:52;;;;;;;1.47;1.17;;;29.80;75.80;;;;;;5052212;28;20520;-71
2022/07/12 11:55:19;;;;;;;1.20;1.10;;;30.10;75.60;;;;;;5051840;28;20454;-71
2022/07/12 11:57:46;;;;;;;1.60;1.30;;;30.30;75.00;;;;;;5051953;28;20583;-72
2022/07/12 12:00:17;;;;;;;1.80;1.40;;;30.40;73.00;;;;;;5051811;28;20446;-72
2022/07/12 12:02:45;;;;;;;1.30;1.30;;;30.40;74.20;;;;;;5051831;28;20466;-72
2022/07/12 12:05:12;;;;;;;1.30;1.30;;;30.50;74.40;;;;;;5051595;28;20476;-72
2022/07/12 12:07:40;;;;;;;1.30;1.30;;;30.60;73.40;;;;;;5051829;28;20449;-72
2022/07/12 12:10:13;;;;;;;1.60;1.30;;;30.50;73.50;;;;;;5051510;28;20450;-72
2022/07/12 12:12:46;;;;;;;1.50;1.37;;;30.80;74.70;;;;;;5051797;28;20457;-72
2022/07/12 12:15:17;;;;;;;1.40;1.23;;;30.90;71.90;;;;;;5051461;28;20466;-72
2022/07/12 12:17:55;;;;;;;1.30;1.30;;;31.20;72.20;;;;;;5051581;28;20465;-71
2022/07/12 12:20:23;;;;;;;1.90;1.30;;;30.90;70.70;;;;;;5051481;28;20864;-71
2022/07/12 12:22:53;;;;;;;1.40;1.37;;;30.90;72.70;;;;;;5051569;28;20453;-71
2022/07/12 12:25:20;;;;;;;1.30;1.20;;;30.80;71.40;;;;;;5051226;28;20940;-71
2022/07/12 12:27:48;;;;;;;1.40;1.40;;;31.00;72.10;;;;;;5050480;28;20462;-71
2022/07/12 12:30:18;;;;;;;1.30;1.20;;;31.20;71.50;;;;;;5051468;28;20460;-72
2022/07/12 12:32:50;;;;;;;1.30;1.20;;;31.50;71.20;;;;;;5051677;28;20453;-73
2022/07/12 12:35:20;;;;;;;1.80;1.33;;;31.50;69.90;;;;;;5051580;28;20542;-75
2022/07/12 12:37:52;;;;;;;1.30;1.30;;;31.30;71.20;;;;;;5052988;28;20454;-75
2022/07/12 12:40:22;;;;;;;1.30;1.20;;;31.20;72.30;;;;;;5053717;28;20469;-75
2022/07/12 12:42:49;;;;;;;1.60;1.40;;;31.30;73.70;;;;;;5053654;28;20840;-75
2022/07/12 12:45:23;;;;;;;1.77;1.30;;;31.50;70.20;;;;;;5054056;28;20465;-75
2022/07/12 12:47:57;;;;;;;1.33;1.30;;;31.30;69.00;;;;;;5053221;28;20461;-75
2022/07/12 12:50:52;;;;;;;1.90;1.50;;;31.30;70.60;;;;;;5052764;28;20464;-74
2022/07/12 12:53:20;;;;;;;1.30;1.20;;;31.20;69.10;;;;;;5018468;28;20528;-75
2022/07/12 12:55:49;;;;;;;1.50;1.30;;;31.10;69.60;;;;;;5053701;28;20481;-75
2022/07/12 12:58:18;;;;;;;1.50;1.50;;;31.20;69.50;;;;;;5052998;28;21072;-76
2022/07/12 13:00:50;;;;;;;1.50;1.20;;;31.00;70.60;;;;;;5052946;28;20794;-75
2022/07/12 13:03:19;;;;;;;1.30;1.30;;;30.90;71.70;;;;;;5053523;28;20457;-76
2022/07/12 13:05:46;;;;;;;1.60;1.30;;;31.10;70.70;;;;;;5052490;28;20485;-75